sensor_id;sensor_type;location;lat;lon;timestamp;P1;durP1;ratioP1;P2;durP2;ratioP2
36799;SDS011;22752;51.960;5.886;2022-07-29T00:00:41;2.75;;;1.40;;
36799;SDS011;22752;51.960;5.886;2022-07-29T00:03:09;6.03;;;1.60;;
36799;SDS011;22752;51.960;5.886;2022-07-29T00:05:37;3.92;;;1.95;;
36799;SDS011;22752;51.960;5.886;2022-07-29T00:08:03;3.85;;;1.50;;
36799;SDS011;22752;51.960;5.886;2022-07-29T00:10:29;4.82;;;1.52;;
36799;SDS011;22752;51.960;5.886;2022-07-29T00:12:55;4.28;;;2.00;;
36799;SDS011;22752;51.960;5.886;2022-07-29T00:15:20;3.97;;;1.67;;
36799;SDS011;22752;51.960;5.886;2022-07-29T00:17:46;6.03;;;1.65;;
36799;SDS011;22752;51.960;5.886;2022-07-29T00:20:11;4.25;;;1.50;;
36799;SDS011;22752;51.960;5.886;2022-07-29T00:22:38;3.22;;;1.60;;
36799;SDS011;22752;51.960;5.886;2022-07-29T00:25:04;2.03;;;1.42;;
36799;SDS011;22752;51.960;5.886;2022-07-29T00:27:30;5.10;;;1.35;;
36799;SDS011;22752;51.960;5.886;2022-07-29T00:29:56;4.03;;;1.50;;
36799;SDS011;22752;51.960;5.886;2022-07-29T00:32:22;6.72;;;1.52;;
36799;SDS011;22752;51.960;5.886;2022-07-29T00:34:47;4.55;;;1.58;;
36799;SDS011;22752;51.960;5.886;2022-07-29T00:37:31;3.45;;;1.48;;
36799;SDS011;22752;51.960;5.886;2022-07-29T00:39:57;5.00;;;1.70;;
36799;SDS011;22752;51.960;5.886;2022-07-29T00:42:22;7.45;;;1.50;;
36799;SDS011;22752;51.960;5.886;2022-07-29T00:44:48;4.82;;;1.40;;
36799;SDS011;22752;51.960;5.886;2022-07-29T00:47:14;2.80;;;1.35;;
36799;SDS011;22752;51.960;5.886;2022-07-29T00:49:40;4.70;;;1.58;;
36799;SDS011;22752;51.960;5.886;2022-07-29T00:52:07;3.90;;;1.65;;
36799;SDS011;22752;51.960;5.886;2022-07-29T00:54:34;2.75;;;1.40;;
36799;SDS011;22752;51.960;5.886;2022-07-29T00:57:01;5.35;;;1.50;;
36799;SDS011;22752;51.960;5.886;2022-07-29T00:59:27;5.22;;;1.70;;
36799;SDS011;22752;51.960;5.886;2022-07-29T01:01:53;5.10;;;2.10;;
36799;SDS011;22752;51.960;5.886;2022-07-29T01:04:20;2.55;;;1.42;;
36799;SDS011;22752;51.960;5.886;2022-07-29T01:06:49;3.08;;;1.48;;
36799;SDS011;22752;51.960;5.886;2022-07-29T01:09:16;9.52;;;1.70;;
36799;SDS011;22752;51.960;5.886;2022-07-29T01:11:43;5.53;;;2.00;;
36799;SDS011;22752;51.960;5.886;2022-07-29T01:14:12;4.82;;;1.60;;
36799;SDS011;22752;51.960;5.886;2022-07-29T01:16:42;4.18;;;1.70;;
36799;SDS011;22752;51.960;5.886;2022-07-29T01:19:25;3.50;;;1.45;;
36799;SDS011;22752;51.960;5.886;2022-07-29T01:22:27;6.10;;;1.80;;
36799;SDS011;22752;51.960;5.886;2022-07-29T01:30:24;3.72;;;1.63;;
36799;SDS011;22752;51.960;5.886;2022-07-29T01:32:56;2.97;;;1.77;;
36799;SDS011;22752;51.960;5.886;2022-07-29T01:35:28;6.75;;;1.92;;
36799;SDS011;22752;51.960;5.886;2022-07-29T01:38:08;3.50;;;1.80;;
36799;SDS011;22752;51.960;5.886;2022-07-29T01:40:42;3.85;;;2.03;;
36799;SDS011;22752;51.960;5.886;2022-07-29T01:43:16;3.45;;;1.58;;
36799;SDS011;22752;51.960;5.886;2022-07-29T01:45:46;5.10;;;1.90;;
36799;SDS011;22752;51.960;5.886;2022-07-29T01:51:04;4.13;;;1.92;;
36799;SDS011;22752;51.960;5.886;2022-07-29T01:56:03;3.58;;;1.65;;
36799;SDS011;22752;51.960;5.886;2022-07-29T01:58:31;5.45;;;2.05;;
36799;SDS011;22752;51.960;5.886;2022-07-29T02:01:00;4.43;;;1.83;;
36799;SDS011;22752;51.960;5.886;2022-07-29T02:03:27;3.83;;;1.88;;
36799;SDS011;22752;51.960;5.886;2022-07-29T02:05:54;5.20;;;1.70;;
36799;SDS011;22752;51.960;5.886;2022-07-29T02:08:21;3.55;;;1.70;;
36799;SDS011;22752;51.960;5.886;2022-07-29T02:10:48;7.05;;;1.83;;
36799;SDS011;22752;51.960;5.886;2022-07-29T02:13:15;3.50;;;1.60;;
36799;SDS011;22752;51.960;5.886;2022-07-29T02:15:43;6.72;;;1.73;;
36799;SDS011;22752;51.960;5.886;2022-07-29T02:18:14;2.72;;;1.63;;
36799;SDS011;22752;51.960;5.886;2022-07-29T02:20:45;4.10;;;1.45;;
36799;SDS011;22752;51.960;5.886;2022-07-29T02:23:14;4.10;;;1.80;;
36799;SDS011;22752;51.960;5.886;2022-07-29T02:25:46;4.10;;;1.58;;
36799;SDS011;22752;51.960;5.886;2022-07-29T02:28:14;2.08;;;1.48;;
36799;SDS011;22752;51.960;5.886;2022-07-29T02:30:42;4.90;;;1.70;;
36799;SDS011;22752;51.960;5.886;2022-07-29T02:33:08;3.58;;;1.70;;
36799;SDS011;22752;51.960;5.886;2022-07-29T02:35:37;3.92;;;1.55;;
36799;SDS011;22752;51.960;5.886;2022-07-29T02:38:05;4.80;;;1.70;;
36799;SDS011;22752;51.960;5.886;2022-07-29T02:40:51;2.72;;;1.75;;
36799;SDS011;22752;51.960;5.886;2022-07-29T02:43:18;2.65;;;1.70;;
36799;SDS011;22752;51.960;5.886;2022-07-29T02:45:46;4.90;;;1.90;;
36799;SDS011;22752;51.960;5.886;2022-07-29T02:48:16;5.15;;;1.90;;
36799;SDS011;22752;51.960;5.886;2022-07-29T02:50:50;2.67;;;1.80;;
36799;SDS011;22752;51.960;5.886;2022-07-29T02:53:20;6.60;;;2.40;;
36799;SDS011;22752;51.960;5.886;2022-07-29T02:55:55;5.82;;;1.92;;
36799;SDS011;22752;51.960;5.886;2022-07-29T02:58:40;3.95;;;1.92;;
36799;SDS011;22752;51.960;5.886;2022-07-29T03:01:16;5.85;;;1.92;;
36799;SDS011;22752;51.960;5.886;2022-07-29T03:03:46;7.15;;;2.10;;
36799;SDS011;22752;51.960;5.886;2022-07-29T03:06:14;4.30;;;2.17;;
36799;SDS011;22752;51.960;5.886;2022-07-29T03:08:42;4.68;;;2.20;;
36799;SDS011;22752;51.960;5.886;2022-07-29T03:11:09;4.40;;;2.22;;
36799;SDS011;22752;51.960;5.886;2022-07-29T03:13:36;4.15;;;2.40;;
36799;SDS011;22752;51.960;5.886;2022-07-29T03:16:02;6.93;;;2.40;;
36799;SDS011;22752;51.960;5.886;2022-07-29T03:18:29;4.75;;;2.63;;
36799;SDS011;22752;51.960;5.886;2022-07-29T03:20:56;7.05;;;2.75;;
36799;SDS011;22752;51.960;5.886;2022-07-29T03:23:22;4.20;;;2.38;;
36799;SDS011;22752;51.960;5.886;2022-07-29T03:25:52;5.43;;;2.78;;
36799;SDS011;22752;51.960;5.886;2022-07-29T03:28:18;5.18;;;3.03;;
36799;SDS011;22752;51.960;5.886;2022-07-29T03:30:44;4.68;;;2.60;;
36799;SDS011;22752;51.960;5.886;2022-07-29T03:33:10;9.32;;;2.65;;
36799;SDS011;22752;51.960;5.886;2022-07-29T03:35:36;8.18;;;3.50;;
36799;SDS011;22752;51.960;5.886;2022-07-29T03:38:01;7.20;;;2.97;;
36799;SDS011;22752;51.960;5.886;2022-07-29T03:40:33;7.15;;;3.40;;
36799;SDS011;22752;51.960;5.886;2022-07-29T03:43:05;8.93;;;2.95;;
36799;SDS011;22752;51.960;5.886;2022-07-29T03:45:32;4.80;;;3.50;;
36799;SDS011;22752;51.960;5.886;2022-07-29T03:48:07;8.38;;;3.05;;
36799;SDS011;22752;51.960;5.886;2022-07-29T03:50:37;6.25;;;3.15;;
36799;SDS011;22752;51.960;5.886;2022-07-29T03:53:03;6.43;;;3.95;;
36799;SDS011;22752;51.960;5.886;2022-07-29T03:55:29;5.63;;;2.85;;
36799;SDS011;22752;51.960;5.886;2022-07-29T03:58:01;7.97;;;3.58;;
36799;SDS011;22752;51.960;5.886;2022-07-29T04:00:28;6.38;;;3.05;;
36799;SDS011;22752;51.960;5.886;2022-07-29T04:02:55;5.70;;;3.60;;
36799;SDS011;22752;51.960;5.886;2022-07-29T04:05:21;5.10;;;3.25;;
36799;SDS011;22752;51.960;5.886;2022-07-29T04:07:47;7.63;;;3.42;;
36799;SDS011;22752;51.960;5.886;2022-07-29T04:10:14;5.68;;;3.53;;
36799;SDS011;22752;51.960;5.886;2022-07-29T04:12:44;7.75;;;3.85;;
36799;SDS011;22752;51.960;5.886;2022-07-29T04:15:09;7.72;;;4.00;;
36799;SDS011;22752;51.960;5.886;2022-07-29T04:17:35;5.68;;;3.72;;
36799;SDS011;22752;51.960;5.886;2022-07-29T04:20:01;3.65;;;3.25;;
36799;SDS011;22752;51.960;5.886;2022-07-29T04:22:27;6.05;;;3.30;;
36799;SDS011;22752;51.960;5.886;2022-07-29T04:24:53;4.18;;;3.20;;
36799;SDS011;22752;51.960;5.886;2022-07-29T04:27:19;6.43;;;3.35;;
36799;SDS011;22752;51.960;5.886;2022-07-29T04:29:44;5.50;;;3.33;;
36799;SDS011;22752;51.960;5.886;2022-07-29T04:32:10;6.55;;;3.30;;
36799;SDS011;22752;51.960;5.886;2022-07-29T04:34:36;8.07;;;3.70;;
36799;SDS011;22752;51.960;5.886;2022-07-29T04:37:01;5.88;;;3.58;;
36799;SDS011;22752;51.960;5.886;2022-07-29T04:39:27;7.28;;;3.83;;
36799;SDS011;22752;51.960;5.886;2022-07-29T04:41:53;7.22;;;3.28;;
36799;SDS011;22752;51.960;5.886;2022-07-29T04:44:19;5.50;;;3.40;;
36799;SDS011;22752;51.960;5.886;2022-07-29T04:46:44;4.18;;;3.20;;
36799;SDS011;22752;51.960;5.886;2022-07-29T04:49:10;3.92;;;2.80;;
36799;SDS011;22752;51.960;5.886;2022-07-29T04:51:35;6.43;;;3.40;;
36799;SDS011;22752;51.960;5.886;2022-07-29T04:54:01;5.30;;;3.08;;
36799;SDS011;22752;51.960;5.886;2022-07-29T04:56:27;5.53;;;3.30;;
36799;SDS011;22752;51.960;5.886;2022-07-29T04:58:52;7.68;;;3.00;;
36799;SDS011;22752;51.960;5.886;2022-07-29T05:01:18;3.13;;;2.83;;
36799;SDS011;22752;51.960;5.886;2022-07-29T05:03:44;4.85;;;2.88;;
36799;SDS011;22752;51.960;5.886;2022-07-29T05:06:10;7.90;;;3.50;;
36799;SDS011;22752;51.960;5.886;2022-07-29T05:08:36;5.88;;;3.38;;
36799;SDS011;22752;51.960;5.886;2022-07-29T05:11:02;6.82;;;3.60;;
36799;SDS011;22752;51.960;5.886;2022-07-29T05:13:28;4.68;;;2.83;;
36799;SDS011;22752;51.960;5.886;2022-07-29T05:15:54;9.15;;;3.33;;
36799;SDS011;22752;51.960;5.886;2022-07-29T05:18:23;4.32;;;2.78;;
36799;SDS011;22752;51.960;5.886;2022-07-29T05:20:50;5.43;;;3.10;;
36799;SDS011;22752;51.960;5.886;2022-07-29T05:23:15;6.53;;;3.40;;
36799;SDS011;22752;51.960;5.886;2022-07-29T05:25:41;7.72;;;3.72;;
36799;SDS011;22752;51.960;5.886;2022-07-29T05:28:07;5.28;;;3.30;;
36799;SDS011;22752;51.960;5.886;2022-07-29T05:30:32;6.47;;;3.08;;
36799;SDS011;22752;51.960;5.886;2022-07-29T05:32:58;4.25;;;2.90;;
36799;SDS011;22752;51.960;5.886;2022-07-29T05:35:24;4.80;;;2.90;;
36799;SDS011;22752;51.960;5.886;2022-07-29T05:37:49;12.15;;;3.20;;
36799;SDS011;22752;51.960;5.886;2022-07-29T05:40:15;5.10;;;2.97;;
36799;SDS011;22752;51.960;5.886;2022-07-29T05:42:41;5.38;;;3.20;;
36799;SDS011;22752;51.960;5.886;2022-07-29T05:45:06;5.32;;;3.35;;
36799;SDS011;22752;51.960;5.886;2022-07-29T05:47:33;8.65;;;3.75;;
36799;SDS011;22752;51.960;5.886;2022-07-29T05:49:59;6.50;;;3.15;;
36799;SDS011;22752;51.960;5.886;2022-07-29T05:52:24;5.13;;;3.38;;
36799;SDS011;22752;51.960;5.886;2022-07-29T05:54:50;5.43;;;3.13;;
36799;SDS011;22752;51.960;5.886;2022-07-29T05:57:20;5.28;;;3.05;;
36799;SDS011;22752;51.960;5.886;2022-07-29T05:59:50;5.28;;;3.22;;
36799;SDS011;22752;51.960;5.886;2022-07-29T06:02:16;4.68;;;3.42;;
36799;SDS011;22752;51.960;5.886;2022-07-29T06:04:43;7.03;;;3.60;;
36799;SDS011;22752;51.960;5.886;2022-07-29T06:07:09;5.65;;;3.25;;
36799;SDS011;22752;51.960;5.886;2022-07-29T06:09:34;4.60;;;3.05;;
36799;SDS011;22752;51.960;5.886;2022-07-29T06:12:00;5.13;;;3.30;;
36799;SDS011;22752;51.960;5.886;2022-07-29T06:14:26;9.38;;;3.40;;
36799;SDS011;22752;51.960;5.886;2022-07-29T06:16:53;4.90;;;2.85;;
36799;SDS011;22752;51.960;5.886;2022-07-29T06:19:19;4.47;;;2.90;;
36799;SDS011;22752;51.960;5.886;2022-07-29T06:21:45;6.15;;;3.13;;
36799;SDS011;22752;51.960;5.886;2022-07-29T06:24:11;6.97;;;3.25;;
36799;SDS011;22752;51.960;5.886;2022-07-29T06:26:38;5.28;;;2.80;;
36799;SDS011;22752;51.960;5.886;2022-07-29T06:29:07;4.65;;;2.70;;
36799;SDS011;22752;51.960;5.886;2022-07-29T06:31:33;6.65;;;3.15;;
36799;SDS011;22752;51.960;5.886;2022-07-29T06:33:59;5.70;;;2.97;;
36799;SDS011;22752;51.960;5.886;2022-07-29T06:36:25;5.82;;;3.05;;
36799;SDS011;22752;51.960;5.886;2022-07-29T06:38:50;7.53;;;3.00;;
36799;SDS011;22752;51.960;5.886;2022-07-29T06:41:16;9.30;;;3.00;;
36799;SDS011;22752;51.960;5.886;2022-07-29T06:43:43;4.60;;;2.70;;
36799;SDS011;22752;51.960;5.886;2022-07-29T06:46:10;5.05;;;2.85;;
36799;SDS011;22752;51.960;5.886;2022-07-29T06:48:38;8.23;;;2.45;;
36799;SDS011;22752;51.960;5.886;2022-07-29T06:51:04;5.57;;;2.40;;
36799;SDS011;22752;51.960;5.886;2022-07-29T06:53:31;3.15;;;2.22;;
36799;SDS011;22752;51.960;5.886;2022-07-29T06:55:58;5.28;;;2.50;;
36799;SDS011;22752;51.960;5.886;2022-07-29T06:58:25;5.25;;;2.17;;
36799;SDS011;22752;51.960;5.886;2022-07-29T07:00:52;4.00;;;2.53;;
36799;SDS011;22752;51.960;5.886;2022-07-29T07:03:18;5.70;;;2.58;;
36799;SDS011;22752;51.960;5.886;2022-07-29T07:05:44;2.83;;;2.03;;
36799;SDS011;22752;51.960;5.886;2022-07-29T07:08:11;3.63;;;2.10;;
36799;SDS011;22752;51.960;5.886;2022-07-29T07:10:37;2.85;;;2.05;;
36799;SDS011;22752;51.960;5.886;2022-07-29T07:13:03;5.07;;;2.08;;
36799;SDS011;22752;51.960;5.886;2022-07-29T07:15:29;4.05;;;2.50;;
36799;SDS011;22752;51.960;5.886;2022-07-29T07:17:55;3.63;;;1.88;;
36799;SDS011;22752;51.960;5.886;2022-07-29T07:20:22;4.35;;;2.00;;
36799;SDS011;22752;51.960;5.886;2022-07-29T07:22:48;7.15;;;2.50;;
36799;SDS011;22752;51.960;5.886;2022-07-29T07:25:13;3.63;;;2.15;;
36799;SDS011;22752;51.960;5.886;2022-07-29T07:27:39;5.53;;;2.10;;
36799;SDS011;22752;51.960;5.886;2022-07-29T07:30:06;2.78;;;1.92;;
36799;SDS011;22752;51.960;5.886;2022-07-29T07:32:33;4.80;;;2.30;;
36799;SDS011;22752;51.960;5.886;2022-07-29T07:34:59;3.03;;;2.00;;
36799;SDS011;22752;51.960;5.886;2022-07-29T07:37:25;3.67;;;2.03;;
36799;SDS011;22752;51.960;5.886;2022-07-29T07:39:51;5.75;;;2.20;;
36799;SDS011;22752;51.960;5.886;2022-07-29T07:42:17;3.72;;;2.25;;
36799;SDS011;22752;51.960;5.886;2022-07-29T07:44:43;4.15;;;2.13;;
36799;SDS011;22752;51.960;5.886;2022-07-29T07:47:10;5.43;;;1.98;;
36799;SDS011;22752;51.960;5.886;2022-07-29T07:49:37;5.47;;;2.10;;
36799;SDS011;22752;51.960;5.886;2022-07-29T07:52:03;3.42;;;2.30;;
36799;SDS011;22752;51.960;5.886;2022-07-29T07:54:30;4.90;;;2.65;;
36799;SDS011;22752;51.960;5.886;2022-07-29T07:56:56;4.65;;;2.22;;
36799;SDS011;22752;51.960;5.886;2022-07-29T07:59:22;4.38;;;2.25;;
36799;SDS011;22752;51.960;5.886;2022-07-29T08:01:48;6.25;;;2.38;;
36799;SDS011;22752;51.960;5.886;2022-07-29T08:04:15;5.68;;;2.30;;
36799;SDS011;22752;51.960;5.886;2022-07-29T08:06:40;4.00;;;2.10;;
36799;SDS011;22752;51.960;5.886;2022-07-29T08:09:06;5.25;;;2.47;;
36799;SDS011;22752;51.960;5.886;2022-07-29T08:11:32;5.05;;;2.45;;
36799;SDS011;22752;51.960;5.886;2022-07-29T08:13:57;2.88;;;2.38;;
36799;SDS011;22752;51.960;5.886;2022-07-29T08:16:23;3.60;;;1.85;;
36799;SDS011;22752;51.960;5.886;2022-07-29T08:18:50;7.75;;;2.25;;
36799;SDS011;22752;51.960;5.886;2022-07-29T08:21:16;5.18;;;2.30;;
36799;SDS011;22752;51.960;5.886;2022-07-29T08:23:43;5.15;;;2.40;;
36799;SDS011;22752;51.960;5.886;2022-07-29T08:26:15;4.90;;;2.20;;
36799;SDS011;22752;51.960;5.886;2022-07-29T08:28:42;3.33;;;2.20;;
36799;SDS011;22752;51.960;5.886;2022-07-29T08:31:14;3.25;;;1.92;;
36799;SDS011;22752;51.960;5.886;2022-07-29T08:33:40;3.85;;;2.30;;
36799;SDS011;22752;51.960;5.886;2022-07-29T08:36:06;2.10;;;1.90;;
36799;SDS011;22752;51.960;5.886;2022-07-29T08:38:32;3.72;;;1.88;;
36799;SDS011;22752;51.960;5.886;2022-07-29T08:40:58;4.75;;;2.00;;
36799;SDS011;22752;51.960;5.886;2022-07-29T08:43:26;6.32;;;2.20;;
36799;SDS011;22752;51.960;5.886;2022-07-29T08:45:53;3.45;;;2.45;;
36799;SDS011;22752;51.960;5.886;2022-07-29T08:48:23;5.22;;;2.35;;
36799;SDS011;22752;51.960;5.886;2022-07-29T08:50:50;6.68;;;1.90;;
36799;SDS011;22752;51.960;5.886;2022-07-29T08:53:19;3.80;;;2.00;;
36799;SDS011;22752;51.960;5.886;2022-07-29T08:55:47;3.50;;;1.90;;
36799;SDS011;22752;51.960;5.886;2022-07-29T08:58:14;4.28;;;2.08;;
36799;SDS011;22752;51.960;5.886;2022-07-29T09:00:41;6.00;;;2.60;;
36799;SDS011;22752;51.960;5.886;2022-07-29T09:03:09;6.70;;;2.33;;
36799;SDS011;22752;51.960;5.886;2022-07-29T09:05:41;5.15;;;2.03;;
36799;SDS011;22752;51.960;5.886;2022-07-29T09:08:07;4.43;;;2.20;;
36799;SDS011;22752;51.960;5.886;2022-07-29T09:10:37;5.97;;;2.30;;
36799;SDS011;22752;51.960;5.886;2022-07-29T09:13:02;3.90;;;2.00;;
36799;SDS011;22752;51.960;5.886;2022-07-29T09:15:28;3.83;;;2.08;;
36799;SDS011;22752;51.960;5.886;2022-07-29T09:17:54;4.78;;;2.80;;
36799;SDS011;22752;51.960;5.886;2022-07-29T09:20:21;3.88;;;2.33;;
36799;SDS011;22752;51.960;5.886;2022-07-29T09:22:48;4.07;;;2.30;;
36799;SDS011;22752;51.960;5.886;2022-07-29T09:25:38;4.20;;;2.30;;
36799;SDS011;22752;51.960;5.886;2022-07-29T09:28:12;5.18;;;2.67;;
36799;SDS011;22752;51.960;5.886;2022-07-29T09:30:54;4.88;;;2.33;;
36799;SDS011;22752;51.960;5.886;2022-07-29T09:33:22;6.05;;;2.88;;
36799;SDS011;22752;51.960;5.886;2022-07-29T09:36:07;6.13;;;2.88;;
36799;SDS011;22752;51.960;5.886;2022-07-29T09:38:34;3.90;;;2.53;;
36799;SDS011;22752;51.960;5.886;2022-07-29T09:41:03;10.82;;;2.90;;
36799;SDS011;22752;51.960;5.886;2022-07-29T09:43:31;5.30;;;2.63;;
36799;SDS011;22752;51.960;5.886;2022-07-29T09:46:05;7.60;;;3.00;;
36799;SDS011;22752;51.960;5.886;2022-07-29T09:48:36;5.10;;;2.60;;
36799;SDS011;22752;51.960;5.886;2022-07-29T09:51:01;7.90;;;3.65;;
36799;SDS011;22752;51.960;5.886;2022-07-29T09:53:35;4.68;;;2.58;;
36799;SDS011;22752;51.960;5.886;2022-07-29T09:56:02;5.07;;;2.88;;
36799;SDS011;22752;51.960;5.886;2022-07-29T09:58:31;8.15;;;3.38;;
36799;SDS011;22752;51.960;5.886;2022-07-29T10:01:00;6.28;;;3.22;;
36799;SDS011;22752;51.960;5.886;2022-07-29T10:03:27;4.72;;;2.78;;
36799;SDS011;22752;51.960;5.886;2022-07-29T10:06:09;4.40;;;2.50;;
36799;SDS011;22752;51.960;5.886;2022-07-29T10:08:36;6.65;;;2.80;;
36799;SDS011;22752;51.960;5.886;2022-07-29T10:11:09;6.07;;;3.20;;
36799;SDS011;22752;51.960;5.886;2022-07-29T10:13:36;3.95;;;2.53;;
36799;SDS011;22752;51.960;5.886;2022-07-29T10:16:02;7.82;;;3.00;;
36799;SDS011;22752;51.960;5.886;2022-07-29T10:18:28;7.82;;;3.45;;
36799;SDS011;22752;51.960;5.886;2022-07-29T10:20:54;7.10;;;2.97;;
36799;SDS011;22752;51.960;5.886;2022-07-29T10:23:21;5.60;;;3.00;;
36799;SDS011;22752;51.960;5.886;2022-07-29T10:25:48;6.25;;;2.75;;
36799;SDS011;22752;51.960;5.886;2022-07-29T10:28:14;5.13;;;2.83;;
36799;SDS011;22752;51.960;5.886;2022-07-29T10:30:40;4.50;;;2.75;;
36799;SDS011;22752;51.960;5.886;2022-07-29T10:33:18;5.10;;;2.55;;
36799;SDS011;22752;51.960;5.886;2022-07-29T10:38:44;4.82;;;2.22;;
36799;SDS011;22752;51.960;5.886;2022-07-29T10:44:21;3.97;;;2.50;;
36799;SDS011;22752;51.960;5.886;2022-07-29T10:46:48;6.70;;;2.60;;
36799;SDS011;22752;51.960;5.886;2022-07-29T10:49:19;6.88;;;3.83;;
36799;SDS011;22752;51.960;5.886;2022-07-29T10:59:49;4.00;;;1.90;;
36799;SDS011;22752;51.960;5.886;2022-07-29T11:05:07;4.03;;;2.10;;
36799;SDS011;22752;51.960;5.886;2022-07-29T11:07:38;6.03;;;2.30;;
36799;SDS011;22752;51.960;5.886;2022-07-29T11:15:09;6.07;;;2.80;;
36799;SDS011;22752;51.960;5.886;2022-07-29T11:22:56;5.22;;;2.60;;
36799;SDS011;22752;51.960;5.886;2022-07-29T11:25:23;7.00;;;2.60;;
36799;SDS011;22752;51.960;5.886;2022-07-29T11:27:49;5.97;;;3.03;;
36799;SDS011;22752;51.960;5.886;2022-07-29T11:30:16;5.75;;;2.63;;
36799;SDS011;22752;51.960;5.886;2022-07-29T11:32:42;7.75;;;2.50;;
36799;SDS011;22752;51.960;5.886;2022-07-29T11:37:42;4.70;;;2.47;;
36799;SDS011;22752;51.960;5.886;2022-07-29T11:40:08;5.75;;;2.63;;
36799;SDS011;22752;51.960;5.886;2022-07-29T11:47:38;7.53;;;2.70;;
36799;SDS011;22752;51.960;5.886;2022-07-29T11:50:14;5.03;;;2.13;;
36799;SDS011;22752;51.960;5.886;2022-07-29T11:52:45;7.00;;;2.97;;
36799;SDS011;22752;51.960;5.886;2022-07-29T11:55:15;4.57;;;2.40;;
36799;SDS011;22752;51.960;5.886;2022-07-29T11:57:49;5.80;;;2.55;;
36799;SDS011;22752;51.960;5.886;2022-07-29T12:00:21;4.65;;;2.50;;
36799;SDS011;22752;51.960;5.886;2022-07-29T12:02:49;4.80;;;2.30;;
36799;SDS011;22752;51.960;5.886;2022-07-29T12:05:16;7.05;;;2.00;;
36799;SDS011;22752;51.960;5.886;2022-07-29T12:07:42;6.20;;;2.83;;
36799;SDS011;22752;51.960;5.886;2022-07-29T12:10:08;4.07;;;2.00;;
36799;SDS011;22752;51.960;5.886;2022-07-29T12:12:34;5.15;;;2.40;;
36799;SDS011;22752;51.960;5.886;2022-07-29T12:15:15;4.55;;;2.10;;
36799;SDS011;22752;51.960;5.886;2022-07-29T12:17:45;4.78;;;2.10;;
36799;SDS011;22752;51.960;5.886;2022-07-29T12:20:11;6.10;;;2.40;;
36799;SDS011;22752;51.960;5.886;2022-07-29T12:22:41;5.30;;;2.20;;
36799;SDS011;22752;51.960;5.886;2022-07-29T12:25:12;5.18;;;2.25;;
36799;SDS011;22752;51.960;5.886;2022-07-29T12:27:42;3.35;;;2.03;;
36799;SDS011;22752;51.960;5.886;2022-07-29T12:30:14;8.25;;;2.70;;
36799;SDS011;22752;51.960;5.886;2022-07-29T12:32:45;5.40;;;2.20;;
36799;SDS011;22752;51.960;5.886;2022-07-29T12:37:39;4.80;;;1.90;;
36799;SDS011;22752;51.960;5.886;2022-07-29T12:40:06;5.13;;;2.10;;
36799;SDS011;22752;51.960;5.886;2022-07-29T12:42:34;5.00;;;2.50;;
36799;SDS011;22752;51.960;5.886;2022-07-29T12:45:00;5.07;;;2.03;;
36799;SDS011;22752;51.960;5.886;2022-07-29T12:47:26;3.25;;;1.88;;
36799;SDS011;22752;51.960;5.886;2022-07-29T12:52:40;2.85;;;1.90;;
36799;SDS011;22752;51.960;5.886;2022-07-29T12:55:06;5.13;;;2.50;;
36799;SDS011;22752;51.960;5.886;2022-07-29T12:57:32;3.28;;;1.88;;
36799;SDS011;22752;51.960;5.886;2022-07-29T13:00:11;5.18;;;2.33;;
36799;SDS011;22752;51.960;5.886;2022-07-29T13:02:38;4.85;;;2.13;;
36799;SDS011;22752;51.960;5.886;2022-07-29T13:05:06;7.28;;;2.10;;
36799;SDS011;22752;51.960;5.886;2022-07-29T13:07:33;1.85;;;1.40;;
36799;SDS011;22752;51.960;5.886;2022-07-29T13:10:15;4.32;;;2.05;;
36799;SDS011;22752;51.960;5.886;2022-07-29T13:15:38;5.75;;;2.40;;
36799;SDS011;22752;51.960;5.886;2022-07-29T13:20:57;4.82;;;2.13;;
36799;SDS011;22752;51.960;5.886;2022-07-29T13:23:35;5.25;;;2.20;;
36799;SDS011;22752;51.960;5.886;2022-07-29T13:26:10;6.75;;;2.25;;
36799;SDS011;22752;51.960;5.886;2022-07-29T13:28:36;7.75;;;1.88;;
36799;SDS011;22752;51.960;5.886;2022-07-29T13:31:02;4.25;;;2.10;;
36799;SDS011;22752;51.960;5.886;2022-07-29T13:33:29;3.13;;;1.83;;
36799;SDS011;22752;51.960;5.886;2022-07-29T13:35:55;9.98;;;2.63;;
36799;SDS011;22752;51.960;5.886;2022-07-29T13:38:21;5.68;;;2.40;;
36799;SDS011;22752;51.960;5.886;2022-07-29T13:40:46;5.13;;;2.40;;
36799;SDS011;22752;51.960;5.886;2022-07-29T13:43:12;5.32;;;2.15;;
36799;SDS011;22752;51.960;5.886;2022-07-29T13:45:38;4.35;;;1.85;;
36799;SDS011;22752;51.960;5.886;2022-07-29T13:48:04;3.05;;;1.92;;
36799;SDS011;22752;51.960;5.886;2022-07-29T13:50:31;6.13;;;2.08;;
36799;SDS011;22752;51.960;5.886;2022-07-29T13:52:57;4.80;;;2.42;;
36799;SDS011;22752;51.960;5.886;2022-07-29T13:55:23;5.40;;;2.40;;
36799;SDS011;22752;51.960;5.886;2022-07-29T13:57:49;3.88;;;2.10;;
36799;SDS011;22752;51.960;5.886;2022-07-29T14:00:15;2.88;;;1.85;;
36799;SDS011;22752;51.960;5.886;2022-07-29T14:02:41;2.90;;;1.65;;
36799;SDS011;22752;51.960;5.886;2022-07-29T14:05:07;4.15;;;2.10;;
36799;SDS011;22752;51.960;5.886;2022-07-29T14:07:34;5.05;;;2.20;;
36799;SDS011;22752;51.960;5.886;2022-07-29T14:10:01;4.45;;;2.10;;
36799;SDS011;22752;51.960;5.886;2022-07-29T14:12:27;3.25;;;1.83;;
36799;SDS011;22752;51.960;5.886;2022-07-29T14:14:52;4.63;;;1.70;;
36799;SDS011;22752;51.960;5.886;2022-07-29T14:17:18;5.22;;;1.60;;
36799;SDS011;22752;51.960;5.886;2022-07-29T14:19:44;2.55;;;1.58;;
36799;SDS011;22752;51.960;5.886;2022-07-29T14:22:09;3.75;;;1.75;;
36799;SDS011;22752;51.960;5.886;2022-07-29T14:24:35;3.72;;;1.88;;
36799;SDS011;22752;51.960;5.886;2022-07-29T14:27:01;4.95;;;1.80;;
36799;SDS011;22752;51.960;5.886;2022-07-29T14:29:27;2.35;;;1.50;;
36799;SDS011;22752;51.960;5.886;2022-07-29T14:31:52;3.00;;;1.75;;
36799;SDS011;22752;51.960;5.886;2022-07-29T14:34:18;4.07;;;1.85;;
36799;SDS011;22752;51.960;5.886;2022-07-29T14:36:44;3.97;;;1.73;;
36799;SDS011;22752;51.960;5.886;2022-07-29T14:39:09;5.78;;;1.80;;
36799;SDS011;22752;51.960;5.886;2022-07-29T14:41:35;3.42;;;1.73;;
36799;SDS011;22752;51.960;5.886;2022-07-29T14:44:01;2.47;;;1.45;;
36799;SDS011;22752;51.960;5.886;2022-07-29T14:46:27;2.70;;;1.58;;
36799;SDS011;22752;51.960;5.886;2022-07-29T14:48:53;3.17;;;1.70;;
36799;SDS011;22752;51.960;5.886;2022-07-29T14:51:18;2.50;;;1.80;;
36799;SDS011;22752;51.960;5.886;2022-07-29T14:53:44;4.28;;;1.50;;
36799;SDS011;22752;51.960;5.886;2022-07-29T14:56:10;4.07;;;1.70;;
36799;SDS011;22752;51.960;5.886;2022-07-29T14:58:35;2.75;;;1.55;;
36799;SDS011;22752;51.960;5.886;2022-07-29T15:01:01;3.97;;;1.65;;
36799;SDS011;22752;51.960;5.886;2022-07-29T15:03:27;4.25;;;1.65;;
36799;SDS011;22752;51.960;5.886;2022-07-29T15:05:53;4.45;;;1.85;;
36799;SDS011;22752;51.960;5.886;2022-07-29T15:08:19;4.22;;;1.60;;
36799;SDS011;22752;51.960;5.886;2022-07-29T15:10:45;3.35;;;1.58;;
36799;SDS011;22752;51.960;5.886;2022-07-29T15:13:10;3.92;;;1.75;;
36799;SDS011;22752;51.960;5.886;2022-07-29T15:15:36;2.22;;;1.50;;
36799;SDS011;22752;51.960;5.886;2022-07-29T15:18:02;1.65;;;1.45;;
36799;SDS011;22752;51.960;5.886;2022-07-29T15:20:28;1.80;;;1.30;;
36799;SDS011;22752;51.960;5.886;2022-07-29T15:22:54;1.40;;;1.30;;
36799;SDS011;22752;51.960;5.886;2022-07-29T15:25:23;3.30;;;1.58;;
36799;SDS011;22752;51.960;5.886;2022-07-29T15:27:50;5.13;;;1.60;;
36799;SDS011;22752;51.960;5.886;2022-07-29T15:30:15;2.97;;;1.85;;
36799;SDS011;22752;51.960;5.886;2022-07-29T15:32:42;3.75;;;1.70;;
36799;SDS011;22752;51.960;5.886;2022-07-29T15:35:08;1.52;;;1.30;;
36799;SDS011;22752;51.960;5.886;2022-07-29T15:37:35;3.38;;;1.60;;
36799;SDS011;22752;51.960;5.886;2022-07-29T15:40:01;2.92;;;1.70;;
36799;SDS011;22752;51.960;5.886;2022-07-29T15:42:28;7.30;;;1.70;;
36799;SDS011;22752;51.960;5.886;2022-07-29T15:44:53;3.45;;;1.60;;
36799;SDS011;22752;51.960;5.886;2022-07-29T15:47:20;4.30;;;1.58;;